sensor_id;sensor_type;location;lat;lon;timestamp;P1;durP1;ratioP1;P2;durP2;ratioP2
8044;SDS011;4065;48.754;9.982;2024-01-16T00:01:15;14.35;;;10.45;;
8044;SDS011;4065;48.754;9.982;2024-01-16T00:04:38;16.27;;;10.90;;
8044;SDS011;4065;48.754;9.982;2024-01-16T00:08:02;17.35;;;10.30;;
8044;SDS011;4065;48.754;9.982;2024-01-16T00:11:24;17.60;;;10.52;;
8044;SDS011;4065;48.754;9.982;2024-01-16T00:14:46;17.90;;;11.43;;
8044;SDS011;4065;48.754;9.982;2024-01-16T00:18:08;18.20;;;11.55;;
8044;SDS011;4065;48.754;9.982;2024-01-16T00:21:30;16.20;;;10.85;;
8044;SDS011;4065;48.754;9.982;2024-01-16T00:24:53;18.95;;;11.18;;
8044;SDS011;4065;48.754;9.982;2024-01-16T00:28:15;24.83;;;12.95;;
8044;SDS011;4065;48.754;9.982;2024-01-16T00:31:39;29.20;;;13.80;;
8044;SDS011;4065;48.754;9.982;2024-01-16T00:35:01;17.48;;;10.73;;
8044;SDS011;4065;48.754;9.982;2024-01-16T00:38:24;29.90;;;13.57;;
8044;SDS011;4065;48.754;9.982;2024-01-16T00:41:47;26.65;;;13.82;;
8044;SDS011;4065;48.754;9.982;2024-01-16T00:45:09;17.08;;;10.82;;
8044;SDS011;4065;48.754;9.982;2024-01-16T00:48:31;11.93;;;9.65;;
8044;SDS011;4065;48.754;9.982;2024-01-16T00:51:53;11.30;;;8.68;;
8044;SDS011;4065;48.754;9.982;2024-01-16T00:55:16;11.65;;;9.85;;
8044;SDS011;4065;48.754;9.982;2024-01-16T00:58:39;13.40;;;9.80;;
8044;SDS011;4065;48.754;9.982;2024-01-16T01:02:01;10.77;;;9.48;;
8044;SDS011;4065;48.754;9.982;2024-01-16T01:05:24;13.18;;;9.73;;
8044;SDS011;4065;48.754;9.982;2024-01-16T01:08:48;12.38;;;9.35;;
8044;SDS011;4065;48.754;9.982;2024-01-16T01:12:10;11.85;;;8.32;;
8044;SDS011;4065;48.754;9.982;2024-01-16T01:15:33;15.20;;;8.32;;
8044;SDS011;4065;48.754;9.982;2024-01-16T01:18:55;13.70;;;9.23;;
8044;SDS011;4065;48.754;9.982;2024-01-16T01:22:17;11.98;;;8.13;;
8044;SDS011;4065;48.754;9.982;2024-01-16T01:25:39;12.52;;;9.05;;
8044;SDS011;4065;48.754;9.982;2024-01-16T01:29:01;10.85;;;8.98;;
8044;SDS011;4065;48.754;9.982;2024-01-16T01:32:24;12.07;;;8.65;;
8044;SDS011;4065;48.754;9.982;2024-01-16T01:35:47;15.43;;;8.63;;
8044;SDS011;4065;48.754;9.982;2024-01-16T01:39:09;16.85;;;11.27;;
8044;SDS011;4065;48.754;9.982;2024-01-16T01:42:32;40.17;;;18.63;;
8044;SDS011;4065;48.754;9.982;2024-01-16T01:45:57;15.60;;;9.80;;
8044;SDS011;4065;48.754;9.982;2024-01-16T01:49:26;12.05;;;9.50;;
8044;SDS011;4065;48.754;9.982;2024-01-16T01:52:49;10.75;;;8.57;;
8044;SDS011;4065;48.754;9.982;2024-01-16T01:56:11;14.18;;;8.77;;
8044;SDS011;4065;48.754;9.982;2024-01-16T01:59:35;9.93;;;8.93;;
8044;SDS011;4065;48.754;9.982;2024-01-16T02:02:57;11.00;;;8.07;;
8044;SDS011;4065;48.754;9.982;2024-01-16T02:06:20;12.50;;;9.25;;
8044;SDS011;4065;48.754;9.982;2024-01-16T02:09:42;13.27;;;8.93;;
8044;SDS011;4065;48.754;9.982;2024-01-16T02:13:04;11.35;;;9.15;;
8044;SDS011;4065;48.754;9.982;2024-01-16T02:16:26;10.13;;;8.80;;
8044;SDS011;4065;48.754;9.982;2024-01-16T02:19:48;9.20;;;8.10;;
8044;SDS011;4065;48.754;9.982;2024-01-16T02:23:12;9.63;;;7.75;;
8044;SDS011;4065;48.754;9.982;2024-01-16T02:26:36;11.18;;;8.90;;
8044;SDS011;4065;48.754;9.982;2024-01-16T02:29:58;10.52;;;8.20;;
8044;SDS011;4065;48.754;9.982;2024-01-16T02:33:20;10.23;;;8.20;;
8044;SDS011;4065;48.754;9.982;2024-01-16T02:36:42;18.52;;;9.80;;
8044;SDS011;4065;48.754;9.982;2024-01-16T02:40:04;11.73;;;9.25;;
8044;SDS011;4065;48.754;9.982;2024-01-16T02:43:28;10.90;;;9.20;;
8044;SDS011;4065;48.754;9.982;2024-01-16T02:46:50;9.65;;;8.00;;
8044;SDS011;4065;48.754;9.982;2024-01-16T02:50:12;11.05;;;8.23;;
8044;SDS011;4065;48.754;9.982;2024-01-16T02:53:34;12.77;;;8.57;;
8044;SDS011;4065;48.754;9.982;2024-01-16T02:56:56;11.40;;;8.85;;
8044;SDS011;4065;48.754;9.982;2024-01-16T03:00:19;14.43;;;9.20;;
8044;SDS011;4065;48.754;9.982;2024-01-16T03:03:42;10.60;;;8.40;;
8044;SDS011;4065;48.754;9.982;2024-01-16T03:07:04;11.88;;;9.43;;
8044;SDS011;4065;48.754;9.982;2024-01-16T03:10:26;9.38;;;7.68;;
8044;SDS011;4065;48.754;9.982;2024-01-16T03:13:51;12.65;;;8.23;;
8044;SDS011;4065;48.754;9.982;2024-01-16T03:17:15;16.17;;;8.68;;
8044;SDS011;4065;48.754;9.982;2024-01-16T03:20:37;9.43;;;8.43;;
8044;SDS011;4065;48.754;9.982;2024-01-16T03:23:59;11.68;;;8.63;;
8044;SDS011;4065;48.754;9.982;2024-01-16T03:27:21;12.15;;;8.73;;
8044;SDS011;4065;48.754;9.982;2024-01-16T03:30:42;11.27;;;8.68;;
8044;SDS011;4065;48.754;9.982;2024-01-16T03:34:06;11.85;;;9.50;;
8044;SDS011;4065;48.754;9.982;2024-01-16T03:37:30;12.20;;;8.27;;
8044;SDS011;4065;48.754;9.982;2024-01-16T03:40:52;9.88;;;8.88;;
8044;SDS011;4065;48.754;9.982;2024-01-16T03:44:14;10.45;;;8.25;;
8044;SDS011;4065;48.754;9.982;2024-01-16T03:47:36;11.70;;;8.05;;
8044;SDS011;4065;48.754;9.982;2024-01-16T03:51:00;14.75;;;10.35;;
8044;SDS011;4065;48.754;9.982;2024-01-16T03:54:23;12.70;;;9.50;;
8044;SDS011;4065;48.754;9.982;2024-01-16T03:57:44;17.23;;;10.45;;
8044;SDS011;4065;48.754;9.982;2024-01-16T04:01:06;13.55;;;8.50;;
8044;SDS011;4065;48.754;9.982;2024-01-16T04:04:28;11.65;;;8.48;;
8044;SDS011;4065;48.754;9.982;2024-01-16T04:07:51;12.52;;;9.40;;
8044;SDS011;4065;48.754;9.982;2024-01-16T04:11:14;10.85;;;7.72;;
8044;SDS011;4065;48.754;9.982;2024-01-16T04:14:36;12.27;;;8.40;;
8044;SDS011;4065;48.754;9.982;2024-01-16T04:17:58;15.05;;;9.32;;
8044;SDS011;4065;48.754;9.982;2024-01-16T04:21:20;12.05;;;9.00;;
8044;SDS011;4065;48.754;9.982;2024-01-16T04:24:43;14.57;;;10.65;;
8044;SDS011;4065;48.754;9.982;2024-01-16T04:28:05;13.38;;;10.38;;
8044;SDS011;4065;48.754;9.982;2024-01-16T04:31:27;13.75;;;10.23;;
8044;SDS011;4065;48.754;9.982;2024-01-16T04:34:49;15.85;;;11.38;;
8044;SDS011;4065;48.754;9.982;2024-01-16T04:38:11;11.93;;;8.98;;
8044;SDS011;4065;48.754;9.982;2024-01-16T04:41:34;11.80;;;8.00;;
8044;SDS011;4065;48.754;9.982;2024-01-16T04:44:56;10.32;;;8.82;;
8044;SDS011;4065;48.754;9.982;2024-01-16T04:48:18;8.88;;;7.97;;
8044;SDS011;4065;48.754;9.982;2024-01-16T04:51:40;12.35;;;8.23;;
8044;SDS011;4065;48.754;9.982;2024-01-16T04:55:02;14.80;;;8.63;;
8044;SDS011;4065;48.754;9.982;2024-01-16T04:58:26;13.00;;;9.82;;
8044;SDS011;4065;48.754;9.982;2024-01-16T05:01:50;16.48;;;11.75;;
8044;SDS011;4065;48.754;9.982;2024-01-16T05:05:12;13.18;;;9.95;;
8044;SDS011;4065;48.754;9.982;2024-01-16T05:08:34;12.10;;;9.57;;
8044;SDS011;4065;48.754;9.982;2024-01-16T05:11:56;12.85;;;9.27;;
8044;SDS011;4065;48.754;9.982;2024-01-16T05:15:19;20.63;;;13.32;;
8044;SDS011;4065;48.754;9.982;2024-01-16T05:18:41;12.07;;;8.90;;
8044;SDS011;4065;48.754;9.982;2024-01-16T05:22:03;12.38;;;9.68;;
8044;SDS011;4065;48.754;9.982;2024-01-16T05:25:25;11.18;;;8.65;;
8044;SDS011;4065;48.754;9.982;2024-01-16T05:28:47;10.30;;;7.95;;
8044;SDS011;4065;48.754;9.982;2024-01-16T05:32:10;9.10;;;7.78;;
8044;SDS011;4065;48.754;9.982;2024-01-16T05:35:32;9.80;;;7.63;;
8044;SDS011;4065;48.754;9.982;2024-01-16T05:38:54;15.82;;;11.75;;
8044;SDS011;4065;48.754;9.982;2024-01-16T05:42:16;17.02;;;10.65;;
8044;SDS011;4065;48.754;9.982;2024-01-16T05:45:38;17.92;;;12.13;;
8044;SDS011;4065;48.754;9.982;2024-01-16T05:49:01;18.50;;;12.57;;
8044;SDS011;4065;48.754;9.982;2024-01-16T05:52:24;14.48;;;9.80;;
8044;SDS011;4065;48.754;9.982;2024-01-16T05:55:46;18.85;;;13.25;;
8044;SDS011;4065;48.754;9.982;2024-01-16T05:59:07;24.25;;;13.48;;
8044;SDS011;4065;48.754;9.982;2024-01-16T06:02:30;12.98;;;10.70;;
8044;SDS011;4065;48.754;9.982;2024-01-16T06:05:53;14.50;;;11.77;;
8044;SDS011;4065;48.754;9.982;2024-01-16T06:09:15;13.80;;;8.85;;
8044;SDS011;4065;48.754;9.982;2024-01-16T06:12:37;25.58;;;20.63;;
8044;SDS011;4065;48.754;9.982;2024-01-16T06:15:59;16.40;;;13.07;;
8044;SDS011;4065;48.754;9.982;2024-01-16T06:19:20;11.57;;;8.27;;
8044;SDS011;4065;48.754;9.982;2024-01-16T06:22:44;12.43;;;10.02;;
8044;SDS011;4065;48.754;9.982;2024-01-16T06:26:07;16.17;;;10.65;;
8044;SDS011;4065;48.754;9.982;2024-01-16T06:29:29;18.75;;;12.15;;
8044;SDS011;4065;48.754;9.982;2024-01-16T06:32:51;14.40;;;9.25;;
8044;SDS011;4065;48.754;9.982;2024-01-16T06:36:13;13.13;;;8.57;;
8044;SDS011;4065;48.754;9.982;2024-01-16T06:39:36;10.45;;;8.93;;
8044;SDS011;4065;48.754;9.982;2024-01-16T06:42:58;12.20;;;9.13;;
8044;SDS011;4065;48.754;9.982;2024-01-16T06:46:20;18.33;;;11.00;;
8044;SDS011;4065;48.754;9.982;2024-01-16T06:49:42;20.58;;;10.02;;
8044;SDS011;4065;48.754;9.982;2024-01-16T06:53:04;22.00;;;13.20;;
8044;SDS011;4065;48.754;9.982;2024-01-16T06:56:27;29.65;;;14.02;;
8044;SDS011;4065;48.754;9.982;2024-01-16T06:59:49;22.67;;;13.15;;
8044;SDS011;4065;48.754;9.982;2024-01-16T07:03:11;21.52;;;11.65;;
8044;SDS011;4065;48.754;9.982;2024-01-16T07:06:33;19.17;;;10.85;;
8044;SDS011;4065;48.754;9.982;2024-01-16T07:09:55;30.05;;;13.15;;
8044;SDS011;4065;48.754;9.982;2024-01-16T07:13:18;29.52;;;14.18;;
8044;SDS011;4065;48.754;9.982;2024-01-16T07:16:40;17.13;;;11.23;;
8044;SDS011;4065;48.754;9.982;2024-01-16T07:20:04;17.33;;;9.57;;
8044;SDS011;4065;48.754;9.982;2024-01-16T07:23:26;13.05;;;9.00;;
8044;SDS011;4065;48.754;9.982;2024-01-16T07:26:48;192.55;;;55.33;;
8044;SDS011;4065;48.754;9.982;2024-01-16T07:30:12;32.67;;;15.27;;
8044;SDS011;4065;48.754;9.982;2024-01-16T07:33:34;15.77;;;10.75;;
8044;SDS011;4065;48.754;9.982;2024-01-16T07:36:56;22.30;;;11.85;;
8044;SDS011;4065;48.754;9.982;2024-01-16T07:40:18;11.90;;;10.15;;
8044;SDS011;4065;48.754;9.982;2024-01-16T07:43:40;146.20;;;46.70;;
8044;SDS011;4065;48.754;9.982;2024-01-16T07:47:06;66.55;;;22.70;;
8044;SDS011;4065;48.754;9.982;2024-01-16T07:50:30;13.50;;;9.70;;
8044;SDS011;4065;48.754;9.982;2024-01-16T07:53:58;16.55;;;11.18;;
8044;SDS011;4065;48.754;9.982;2024-01-16T07:57:26;36.75;;;17.80;;
8044;SDS011;4065;48.754;9.982;2024-01-16T08:00:48;40.97;;;19.90;;
8044;SDS011;4065;48.754;9.982;2024-01-16T08:04:12;52.70;;;26.33;;
8044;SDS011;4065;48.754;9.982;2024-01-16T08:07:36;42.38;;;20.45;;
8044;SDS011;4065;48.754;9.982;2024-01-16T08:10:58;38.05;;;18.27;;
8044;SDS011;4065;48.754;9.982;2024-01-16T08:14:20;16.85;;;11.07;;
8044;SDS011;4065;48.754;9.982;2024-01-16T08:17:42;17.58;;;13.00;;
8044;SDS011;4065;48.754;9.982;2024-01-16T08:21:05;14.30;;;11.73;;
8044;SDS011;4065;48.754;9.982;2024-01-16T08:24:28;10.98;;;9.75;;
8044;SDS011;4065;48.754;9.982;2024-01-16T08:27:49;16.23;;;10.93;;
8044;SDS011;4065;48.754;9.982;2024-01-16T08:31:12;11.48;;;10.30;;
8044;SDS011;4065;48.754;9.982;2024-01-16T08:34:33;13.07;;;10.98;;
8044;SDS011;4065;48.754;9.982;2024-01-16T08:37:57;16.92;;;11.40;;
8044;SDS011;4065;48.754;9.982;2024-01-16T08:41:20;16.20;;;11.45;;
8044;SDS011;4065;48.754;9.982;2024-01-16T08:44:42;14.85;;;9.73;;
8044;SDS011;4065;48.754;9.982;2024-01-16T08:48:04;14.65;;;9.88;;
8044;SDS011;4065;48.754;9.982;2024-01-16T08:51:26;11.65;;;9.48;;
8044;SDS011;4065;48.754;9.982;2024-01-16T08:54:53;14.10;;;10.00;;
8044;SDS011;4065;48.754;9.982;2024-01-16T08:58:15;11.90;;;9.65;;
8044;SDS011;4065;48.754;9.982;2024-01-16T09:01:37;16.05;;;11.13;;
8044;SDS011;4065;48.754;9.982;2024-01-16T09:05:02;14.73;;;10.93;;
8044;SDS011;4065;48.754;9.982;2024-01-16T09:08:27;12.50;;;9.27;;
8044;SDS011;4065;48.754;9.982;2024-01-16T09:11:51;10.60;;;8.32;;
8044;SDS011;4065;48.754;9.982;2024-01-16T09:15:13;12.05;;;8.85;;
8044;SDS011;4065;48.754;9.982;2024-01-16T09:18:36;11.88;;;9.30;;
8044;SDS011;4065;48.754;9.982;2024-01-16T09:21:58;9.15;;;8.30;;
8044;SDS011;4065;48.754;9.982;2024-01-16T09:25:19;10.05;;;8.93;;
8044;SDS011;4065;48.754;9.982;2024-01-16T09:28:45;14.18;;;10.70;;
8044;SDS011;4065;48.754;9.982;2024-01-16T09:32:07;14.50;;;11.68;;
8044;SDS011;4065;48.754;9.982;2024-01-16T09:35:29;11.75;;;9.00;;
8044;SDS011;4065;48.754;9.982;2024-01-16T09:38:53;10.98;;;8.13;;
8044;SDS011;4065;48.754;9.982;2024-01-16T09:42:15;9.75;;;7.60;;
8044;SDS011;4065;48.754;9.982;2024-01-16T09:45:39;10.90;;;8.15;;
8044;SDS011;4065;48.754;9.982;2024-01-16T09:49:01;11.07;;;8.52;;
8044;SDS011;4065;48.754;9.982;2024-01-16T09:52:23;12.32;;;10.63;;
8044;SDS011;4065;48.754;9.982;2024-01-16T09:55:46;12.85;;;9.80;;
8044;SDS011;4065;48.754;9.982;2024-01-16T09:59:09;13.60;;;10.57;;
8044;SDS011;4065;48.754;9.982;2024-01-16T10:02:33;11.45;;;9.00;;
8044;SDS011;4065;48.754;9.982;2024-01-16T10:05:58;10.55;;;8.65;;
8044;SDS011;4065;48.754;9.982;2024-01-16T10:09:21;11.65;;;9.52;;
8044;SDS011;4065;48.754;9.982;2024-01-16T10:12:43;13.18;;;9.35;;
8044;SDS011;4065;48.754;9.982;2024-01-16T10:16:05;12.48;;;9.65;;
8044;SDS011;4065;48.754;9.982;2024-01-16T10:19:29;10.52;;;7.40;;
8044;SDS011;4065;48.754;9.982;2024-01-16T10:22:54;7.55;;;6.75;;
8044;SDS011;4065;48.754;9.982;2024-01-16T10:26:21;11.52;;;7.13;;
8044;SDS011;4065;48.754;9.982;2024-01-16T10:29:54;9.85;;;7.63;;
8044;SDS011;4065;48.754;9.982;2024-01-16T10:33:17;10.00;;;6.55;;
8044;SDS011;4065;48.754;9.982;2024-01-16T10:36:43;16.67;;;11.43;;
8044;SDS011;4065;48.754;9.982;2024-01-16T10:40:09;24.48;;;16.25;;
8044;SDS011;4065;48.754;9.982;2024-01-16T10:43:35;10.23;;;8.20;;
8044;SDS011;4065;48.754;9.982;2024-01-16T10:47:14;17.33;;;8.80;;
8044;SDS011;4065;48.754;9.982;2024-01-16T10:50:38;9.82;;;7.57;;
8044;SDS011;4065;48.754;9.982;2024-01-16T10:54:03;9.45;;;6.70;;
8044;SDS011;4065;48.754;9.982;2024-01-16T10:57:37;8.32;;;7.35;;
8044;SDS011;4065;48.754;9.982;2024-01-16T11:01:06;15.63;;;8.82;;
8044;SDS011;4065;48.754;9.982;2024-01-16T11:04:33;6.45;;;5.82;;
8044;SDS011;4065;48.754;9.982;2024-01-16T11:08:05;10.88;;;6.88;;
8044;SDS011;4065;48.754;9.982;2024-01-16T11:11:29;9.98;;;5.75;;
8044;SDS011;4065;48.754;9.982;2024-01-16T11:14:51;5.75;;;5.15;;
8044;SDS011;4065;48.754;9.982;2024-01-16T11:18:14;6.35;;;4.90;;
8044;SDS011;4065;48.754;9.982;2024-01-16T11:21:37;6.43;;;5.22;;
8044;SDS011;4065;48.754;9.982;2024-01-16T11:25:09;9.60;;;6.10;;
8044;SDS011;4065;48.754;9.982;2024-01-16T11:28:33;7.90;;;6.00;;
8044;SDS011;4065;48.754;9.982;2024-01-16T11:31:56;7.45;;;4.95;;
8044;SDS011;4065;48.754;9.982;2024-01-16T11:35:19;6.45;;;5.40;;
8044;SDS011;4065;48.754;9.982;2024-01-16T11:38:55;5.50;;;4.28;;
8044;SDS011;4065;48.754;9.982;2024-01-16T11:42:22;6.75;;;4.57;;
8044;SDS011;4065;48.754;9.982;2024-01-16T11:45:55;7.15;;;5.28;;
8044;SDS011;4065;48.754;9.982;2024-01-16T11:49:19;5.10;;;4.60;;
8044;SDS011;4065;48.754;9.982;2024-01-16T11:52:41;8.68;;;5.25;;
8044;SDS011;4065;48.754;9.982;2024-01-16T11:56:15;6.45;;;4.93;;
8044;SDS011;4065;48.754;9.982;2024-01-16T12:00:16;8.10;;;5.05;;
8044;SDS011;4065;48.754;9.982;2024-01-16T12:03:43;6.03;;;4.65;;
8044;SDS011;4065;48.754;9.982;2024-01-16T12:07:08;7.65;;;4.60;;
8044;SDS011;4065;48.754;9.982;2024-01-16T12:10:31;12.27;;;7.70;;
8044;SDS011;4065;48.754;9.982;2024-01-16T12:14:00;8.45;;;5.90;;
8044;SDS011;4065;48.754;9.982;2024-01-16T12:17:24;10.90;;;5.80;;
8044;SDS011;4065;48.754;9.982;2024-01-16T12:20:47;7.05;;;5.72;;
8044;SDS011;4065;48.754;9.982;2024-01-16T12:24:09;6.22;;;5.20;;
8044;SDS011;4065;48.754;9.982;2024-01-16T12:27:31;9.05;;;7.10;;
8044;SDS011;4065;48.754;9.982;2024-01-16T12:30:53;24.25;;;16.35;;
8044;SDS011;4065;48.754;9.982;2024-01-16T12:34:15;11.18;;;8.68;;
8044;SDS011;4065;48.754;9.982;2024-01-16T12:37:38;11.00;;;8.40;;
8044;SDS011;4065;48.754;9.982;2024-01-16T12:41:00;9.57;;;6.45;;
8044;SDS011;4065;48.754;9.982;2024-01-16T12:44:26;8.30;;;4.93;;
8044;SDS011;4065;48.754;9.982;2024-01-16T12:47:51;5.40;;;4.70;;
8044;SDS011;4065;48.754;9.982;2024-01-16T12:51:19;5.68;;;4.10;;
8044;SDS011;4065;48.754;9.982;2024-01-16T12:54:44;4.63;;;4.22;;
8044;SDS011;4065;48.754;9.982;2024-01-16T12:58:12;4.57;;;4.10;;
8044;SDS011;4065;48.754;9.982;2024-01-16T13:01:35;6.30;;;4.18;;
8044;SDS011;4065;48.754;9.982;2024-01-16T13:04:57;6.20;;;4.45;;
8044;SDS011;4065;48.754;9.982;2024-01-16T13:08:20;5.15;;;4.65;;
8044;SDS011;4065;48.754;9.982;2024-01-16T13:11:48;5.85;;;4.20;;
8044;SDS011;4065;48.754;9.982;2024-01-16T13:15:11;8.70;;;5.00;;
8044;SDS011;4065;48.754;9.982;2024-01-16T13:18:37;8.27;;;5.35;;
8044;SDS011;4065;48.754;9.982;2024-01-16T13:21:59;7.72;;;5.28;;
8044;SDS011;4065;48.754;9.982;2024-01-16T13:25:21;5.30;;;4.50;;
8044;SDS011;4065;48.754;9.982;2024-01-16T13:28:47;5.82;;;4.25;;
8044;SDS011;4065;48.754;9.982;2024-01-16T13:32:13;7.30;;;5.32;;
8044;SDS011;4065;48.754;9.982;2024-01-16T13:35:37;8.95;;;5.90;;
8044;SDS011;4065;48.754;9.982;2024-01-16T13:39:03;7.95;;;5.07;;
8044;SDS011;4065;48.754;9.982;2024-01-16T13:42:33;6.88;;;5.25;;
8044;SDS011;4065;48.754;9.982;2024-01-16T13:45:56;6.10;;;5.30;;
8044;SDS011;4065;48.754;9.982;2024-01-16T13:49:18;6.55;;;5.88;;
8044;SDS011;4065;48.754;9.982;2024-01-16T13:52:40;10.00;;;8.75;;
8044;SDS011;4065;48.754;9.982;2024-01-16T13:56:04;8.43;;;6.35;;
8044;SDS011;4065;48.754;9.982;2024-01-16T13:59:26;10.98;;;8.68;;
8044;SDS011;4065;48.754;9.982;2024-01-16T14:02:50;7.22;;;6.53;;
8044;SDS011;4065;48.754;9.982;2024-01-16T14:06:12;8.18;;;6.55;;
8044;SDS011;4065;48.754;9.982;2024-01-16T14:09:35;8.48;;;6.00;;
8044;SDS011;4065;48.754;9.982;2024-01-16T14:13:01;8.55;;;6.32;;
8044;SDS011;4065;48.754;9.982;2024-01-16T14:16:27;9.13;;;5.50;;
8044;SDS011;4065;48.754;9.982;2024-01-16T14:19:51;12.75;;;9.02;;
8044;SDS011;4065;48.754;9.982;2024-01-16T14:23:13;9.02;;;6.47;;
8044;SDS011;4065;48.754;9.982;2024-01-16T14:26:35;10.77;;;4.93;;
8044;SDS011;4065;48.754;9.982;2024-01-16T14:29:58;8.93;;;5.50;;
8044;SDS011;4065;48.754;9.982;2024-01-16T14:33:20;7.15;;;5.80;;
8044;SDS011;4065;48.754;9.982;2024-01-16T14:36:43;5.68;;;4.88;;
8044;SDS011;4065;48.754;9.982;2024-01-16T14:40:05;6.25;;;5.28;;
8044;SDS011;4065;48.754;9.982;2024-01-16T14:43:36;6.78;;;6.07;;
8044;SDS011;4065;48.754;9.982;2024-01-16T14:46:58;8.27;;;6.75;;
8044;SDS011;4065;48.754;9.982;2024-01-16T14:50:20;8.18;;;7.38;;
8044;SDS011;4065;48.754;9.982;2024-01-16T14:53:43;10.57;;;7.95;;
8044;SDS011;4065;48.754;9.982;2024-01-16T14:57:06;7.85;;;6.30;;
8044;SDS011;4065;48.754;9.982;2024-01-16T15:00:28;6.80;;;6.13;;
8044;SDS011;4065;48.754;9.982;2024-01-16T15:03:51;8.20;;;6.43;;
8044;SDS011;4065;48.754;9.982;2024-01-16T15:07:13;8.00;;;6.13;;
8044;SDS011;4065;48.754;9.982;2024-01-16T15:10:37;9.48;;;6.85;;
8044;SDS011;4065;48.754;9.982;2024-01-16T15:13:59;7.47;;;6.28;;
8044;SDS011;4065;48.754;9.982;2024-01-16T15:17:21;10.10;;;6.90;;
8044;SDS011;4065;48.754;9.982;2024-01-16T15:20:43;10.15;;;8.38;;
8044;SDS011;4065;48.754;9.982;2024-01-16T15:24:06;29.70;;;21.55;;
8044;SDS011;4065;48.754;9.982;2024-01-16T15:27:30;39.63;;;34.38;;
8044;SDS011;4065;48.754;9.982;2024-01-16T15:30:51;12.73;;;11.38;;
8044;SDS011;4065;48.754;9.982;2024-01-16T15:34:14;11.40;;;7.60;;
8044;SDS011;4065;48.754;9.982;2024-01-16T15:37:39;12.93;;;8.65;;
8044;SDS011;4065;48.754;9.982;2024-01-16T15:41:02;12.20;;;8.25;;
8044;SDS011;4065;48.754;9.982;2024-01-16T15:44:25;8.73;;;6.50;;
8044;SDS011;4065;48.754;9.982;2024-01-16T15:47:47;7.70;;;6.82;;
8044;SDS011;4065;48.754;9.982;2024-01-16T15:51:09;7.88;;;6.95;;
8044;SDS011;4065;48.754;9.982;2024-01-16T15:54:31;7.90;;;7.03;;
8044;SDS011;4065;48.754;9.982;2024-01-16T15:58:03;8.07;;;6.90;;
8044;SDS011;4065;48.754;9.982;2024-01-16T16:01:27;10.75;;;7.85;;
8044;SDS011;4065;48.754;9.982;2024-01-16T16:04:55;27.27;;;22.10;;
8044;SDS011;4065;48.754;9.982;2024-01-16T16:08:17;16.95;;;12.63;;
8044;SDS011;4065;48.754;9.982;2024-01-16T16:11:39;12.60;;;11.32;;
8044;SDS011;4065;48.754;9.982;2024-01-16T16:15:03;11.65;;;10.45;;
8044;SDS011;4065;48.754;9.982;2024-01-16T16:18:29;11.50;;;9.13;;
8044;SDS011;4065;48.754;9.982;2024-01-16T16:21:54;10.10;;;8.73;;
8044;SDS011;4065;48.754;9.982;2024-01-16T16:25:17;12.45;;;10.88;;
8044;SDS011;4065;48.754;9.982;2024-01-16T16:28:39;16.85;;;12.80;;
8044;SDS011;4065;48.754;9.982;2024-01-16T16:32:01;13.57;;;10.27;;
8044;SDS011;4065;48.754;9.982;2024-01-16T16:35:24;13.07;;;9.40;;
8044;SDS011;4065;48.754;9.982;2024-01-16T16:38:46;15.13;;;10.75;;
8044;SDS011;4065;48.754;9.982;2024-01-16T16:42:10;9.98;;;8.25;;
8044;SDS011;4065;48.754;9.982;2024-01-16T16:45:32;46.28;;;21.95;;
8044;SDS011;4065;48.754;9.982;2024-01-16T16:48:54;49.65;;;25.30;;
8044;SDS011;4065;48.754;9.982;2024-01-16T16:52:18;23.65;;;16.90;;
8044;SDS011;4065;48.754;9.982;2024-01-16T16:55:40;20.42;;;13.18;;
8044;SDS011;4065;48.754;9.982;2024-01-16T16:59:02;22.23;;;16.90;;
8044;SDS011;4065;48.754;9.982;2024-01-16T17:02:24;20.00;;;14.05;;
8044;SDS011;4065;48.754;9.982;2024-01-16T17:05:46;21.38;;;15.07;;
8044;SDS011;4065;48.754;9.982;2024-01-16T17:09:09;101.53;;;54.58;;
8044;SDS011;4065;48.754;9.982;2024-01-16T17:12:32;19.95;;;14.35;;
8044;SDS011;4065;48.754;9.982;2024-01-16T17:15:53;40.30;;;24.20;;
8044;SDS011;4065;48.754;9.982;2024-01-16T17:19:16;24.75;;;15.30;;
8044;SDS011;4065;48.754;9.982;2024-01-16T17:22:38;13.95;;;9.60;;
8044;SDS011;4065;48.754;9.982;2024-01-16T17:26:02;18.50;;;11.50;;
8044;SDS011;4065;48.754;9.982;2024-01-16T17:29:25;15.32;;;10.88;;
8044;SDS011;4065;48.754;9.982;2024-01-16T17:32:47;19.90;;;12.70;;
8044;SDS011;4065;48.754;9.982;2024-01-16T17:36:09;20.50;;;12.13;;
8044;SDS011;4065;48.754;9.982;2024-01-16T17:39:33;13.95;;;11.57;;
8044;SDS011;4065;48.754;9.982;2024-01-16T17:42:56;50.00;;;36.85;;
8044;SDS011;4065;48.754;9.982;2024-01-16T17:46:18;22.73;;;14.38;;
8044;SDS011;4065;48.754;9.982;2024-01-16T17:49:40;25.92;;;18.05;;
8044;SDS011;4065;48.754;9.982;2024-01-16T17:53:02;25.77;;;19.40;;
8044;SDS011;4065;48.754;9.982;2024-01-16T17:56:25;28.00;;;18.85;;
8044;SDS011;4065;48.754;9.982;2024-01-16T17:59:49;26.33;;;19.83;;
8044;SDS011;4065;48.754;9.982;2024-01-16T18:03:11;26.27;;;20.27;;
8044;SDS011;4065;48.754;9.982;2024-01-16T18:06:33;29.30;;;22.95;;
8044;SDS011;4065;48.754;9.982;2024-01-16T18:09:55;27.48;;;24.50;;
8044;SDS011;4065;48.754;9.982;2024-01-16T18:13:19;26.95;;;23.92;;
8044;SDS011;4065;48.754;9.982;2024-01-16T18:16:43;21.98;;;19.48;;
8044;SDS011;4065;48.754;9.982;2024-01-16T18:20:09;15.32;;;12.88;;
8044;SDS011;4065;48.754;9.982;2024-01-16T18:23:31;15.63;;;13.88;;
8044;SDS011;4065;48.754;9.982;2024-01-16T18:26:55;14.48;;;12.55;;
8044;SDS011;4065;48.754;9.982;2024-01-16T18:30:18;20.75;;;14.75;;
8044;SDS011;4065;48.754;9.982;2024-01-16T18:33:44;15.20;;;13.23;;
8044;SDS011;4065;48.754;9.982;2024-01-16T18:37:06;19.42;;;16.08;;
8044;SDS011;4065;48.754;9.982;2024-01-16T18:40:29;27.80;;;17.73;;
8044;SDS011;4065;48.754;9.982;2024-01-16T18:43:53;22.77;;;16.77;;
8044;SDS011;4065;48.754;9.982;2024-01-16T18:47:15;28.15;;;18.95;;
8044;SDS011;4065;48.754;9.982;2024-01-16T18:50:39;87.60;;;50.33;;
8044;SDS011;4065;48.754;9.982;2024-01-16T18:54:01;42.33;;;25.27;;
8044;SDS011;4065;48.754;9.982;2024-01-16T18:57:23;42.83;;;27.67;;
8044;SDS011;4065;48.754;9.982;2024-01-16T19:00:45;54.33;;;29.73;;
8044;SDS011;4065;48.754;9.982;2024-01-16T19:04:10;31.15;;;20.48;;
8044;SDS011;4065;48.754;9.982;2024-01-16T19:07:39;40.35;;;28.42;;
8044;SDS011;4065;48.754;9.982;2024-01-16T19:11:01;41.22;;;27.23;;
8044;SDS011;4065;48.754;9.982;2024-01-16T19:14:23;42.05;;;28.52;;
8044;SDS011;4065;48.754;9.982;2024-01-16T19:17:45;44.38;;;29.23;;
8044;SDS011;4065;48.754;9.982;2024-01-16T19:21:08;43.90;;;26.50;;
8044;SDS011;4065;48.754;9.982;2024-01-16T19:24:31;39.25;;;26.38;;
8044;SDS011;4065;48.754;9.982;2024-01-16T19:27:53;34.10;;;23.83;;
8044;SDS011;4065;48.754;9.982;2024-01-16T19:31:15;32.53;;;25.13;;
8044;SDS011;4065;48.754;9.982;2024-01-16T19:34:36;32.05;;;25.45;;
8044;SDS011;4065;48.754;9.982;2024-01-16T19:37:58;29.30;;;23.10;;
8044;SDS011;4065;48.754;9.982;2024-01-16T19:41:22;55.35;;;38.55;;
8044;SDS011;4065;48.754;9.982;2024-01-16T19:44:46;42.08;;;29.55;;
8044;SDS011;4065;48.754;9.982;2024-01-16T19:48:08;27.00;;;19.83;;
8044;SDS011;4065;48.754;9.982;2024-01-16T19:51:33;26.35;;;19.02;;
8044;SDS011;4065;48.754;9.982;2024-01-16T19:54:55;23.27;;;17.45;;
8044;SDS011;4065;48.754;9.982;2024-01-16T19:58:22;38.47;;;25.38;;
8044;SDS011;4065;48.754;9.982;2024-01-16T20:01:44;37.25;;;25.30;;
8044;SDS011;4065;48.754;9.982;2024-01-16T20:05:07;42.10;;;26.55;;
8044;SDS011;4065;48.754;9.982;2024-01-16T20:08:29;39.10;;;26.25;;
8044;SDS011;4065;48.754;9.982;2024-01-16T20:11:51;35.58;;;25.63;;
8044;SDS011;4065;48.754;9.982;2024-01-16T20:15:16;34.65;;;23.63;;
8044;SDS011;4065;48.754;9.982;2024-01-16T20:18:42;33.10;;;24.00;;
8044;SDS011;4065;48.754;9.982;2024-01-16T20:22:04;33.90;;;24.20;;
8044;SDS011;4065;48.754;9.982;2024-01-16T20:25:27;37.80;;;26.73;;
8044;SDS011;4065;48.754;9.982;2024-01-16T20:28:50;41.35;;;29.83;;
8044;SDS011;4065;48.754;9.982;2024-01-16T20:32:13;50.60;;;35.13;;
8044;SDS011;4065;48.754;9.982;2024-01-16T20:35:35;33.97;;;26.15;;
8044;SDS011;4065;48.754;9.982;2024-01-16T20:38:57;65.43;;;41.15;;